Time;durP1;ratioP1;P1;durP2;ratioP2;P2;SDS_P1;SDS_P2;PMS_P1;PMS_P2;Temp;Humidity;BMP_temperature;BMP_pressure;BME280_temperature;BME280_humidity;BME280_pressure;Samples;Min_cycle;Max_cycle;Signal;HPM_P1;HPM_P2
2023/08/04 00:03:32;;;;;;;;;;;21.80;53.10;;;21.03;52.84;100124.41;12251375;19;19922;-87
2023/08/04 00:07:34;;;;;;;;;;;21.80;53.10;;;20.96;52.94;100129.59;12247932;19;19935;-86
2023/08/04 00:11:36;;;;;;;;;;;21.80;53.20;;;20.95;52.76;100130.56;12251286;19;19963;-86
2023/08/04 00:15:37;;;;;;;;;;;21.80;53.20;;;20.97;52.54;100142.66;12250693;19;19915;-85
2023/08/04 00:19:40;;;;;;;;;;;21.80;53.30;;;20.81;52.59;100120.63;12251390;19;20222;-86
2023/08/04 00:23:41;;;;;;;;;;;21.70;53.20;;;20.95;52.97;100157.97;12246544;19;20333;-86
2023/08/04 00:27:42;;;;;;;;;;;21.70;53.30;;;20.81;52.65;100132.06;12245410;19;19914;-86
2023/08/04 00:31:44;;;;;;;;;;;21.70;53.30;;;20.86;52.88;100148.31;12246843;19;19911;-86
2023/08/04 00:35:45;;;;;;;;;;;21.70;53.40;;;20.94;52.97;100158.94;12248375;19;19919;-86
2023/08/04 00:39:47;;;;;;;;;;;21.70;53.50;;;20.93;52.94;100164.44;12248470;19;19919;-86
2023/08/04 00:43:48;;;;;;;;;;;21.70;53.40;;;20.94;53.02;100168.72;12249920;19;19918;-86
2023/08/04 00:47:53;;;;;;;;;;;21.70;53.50;;;20.78;53.12;100135.88;12247054;19;19945;-85
2023/08/04 00:51:56;;;;;;;;;;;21.70;53.50;;;20.92;53.05;100176.84;12246485;19;19952;-86
2023/08/04 00:55:57;;;;;;;;;;;21.70;53.50;;;20.80;53.22;100162.25;12246546;19;19987;-86
2023/08/04 00:59:59;;;;;;;;;;;21.70;53.50;;;20.91;53.28;100190.31;12246749;19;19907;-86
2023/08/04 01:04:10;;;;;;;;;;;21.70;53.70;;;20.77;53.16;100158.09;12247675;19;19922;-86
2023/08/04 01:08:23;;;;;;;;;;;21.70;53.70;;;20.91;53.31;100190.31;12242454;19;20318;-85
2023/08/04 01:12:56;;;;;;;;;;;21.70;53.80;;;20.91;53.30;100177.84;12243869;19;19919;-85
2023/08/04 01:17:03;;;;;;;;;;;21.70;53.80;;;20.89;53.44;100176.34;12243122;19;19926;-86
2023/08/04 01:21:05;;;;;;;;;;;21.70;53.80;;;20.89;53.44;100187.81;12247194;19;19919;-85
2023/08/04 01:25:07;;;;;;;;;;;21.70;53.80;;;20.78;52.98;100173.03;12246552;19;19921;-85
2023/08/04 01:29:09;;;;;;;;;;;21.70;53.90;;;20.69;53.54;100166.06;12246728;19;19915;-86
2023/08/04 01:33:11;;;;;;;;;;;21.70;54.00;;;20.70;53.45;100186.28;12245357;19;19919;-85
2023/08/04 01:37:13;;;;;;;;;;;21.70;54.40;;;20.91;53.09;100238.09;12243576;19;19932;-86
2023/08/04 01:41:15;;;;;;;;;;;21.70;54.00;;;20.85;53.07;100254.66;12243022;19;20338;-85
2023/08/04 01:45:17;;;;;;;;;;;21.70;54.10;;;20.93;53.30;100281.22;12244126;19;19919;-85
2023/08/04 01:49:18;;;;;;;;;;;21.70;54.10;;;20.80;53.39;100260.47;12245470;19;19944;-85
2023/08/04 01:53:21;;;;;;;;;;;21.70;54.50;;;20.91;53.34;100280.56;12245994;19;19919;-85
2023/08/04 01:57:22;;;;;;;;;;;21.70;54.30;;;20.74;53.49;100239.88;12241615;19;19923;-85
2023/08/04 02:01:24;;;;;;;;;;;21.70;54.20;;;20.97;53.61;100271.94;12244983;19;19947;-85
2023/08/04 02:05:25;;;;;;;;;;;21.70;54.30;;;20.96;53.31;100279.06;12244218;19;19919;-85
2023/08/04 02:09:28;;;;;;;;;;;21.80;54.30;;;20.74;53.62;100247.84;12244871;19;19929;-85
2023/08/04 02:13:31;;;;;;;;;;;21.80;54.20;;;20.91;53.71;100283.22;12245252;19;20324;-85
2023/08/04 02:17:34;;;;;;;;;;;21.80;54.20;;;20.94;53.47;100296.97;12240890;19;20018;-85
2023/08/04 02:21:36;;;;;;;;;;;21.70;54.50;;;20.91;53.41;100301.78;12244306;19;19922;-85
2023/08/04 02:25:38;;;;;;;;;;;21.80;54.60;;;20.84;53.70;100290.16;12242670;19;19922;-84
2023/08/04 02:29:39;;;;;;;;;;;21.80;54.30;;;20.92;53.53;100303.44;12245594;19;19918;-85
2023/08/04 02:33:40;;;;;;;;;;;21.70;54.60;;;20.63;53.85;100262.25;12243933;19;19915;-86
2023/08/04 02:37:42;;;;;;;;;;;21.70;54.50;;;20.91;54.04;100312.41;12240280;19;19922;-85
2023/08/04 02:41:44;;;;;;;;;;;21.70;54.40;;;20.83;53.84;100301.78;12242749;19;19918;-85
2023/08/04 02:45:50;;;;;;;;;;;21.70;54.40;;;20.64;53.69;100279.00;12248768;19;19942;-85
2023/08/04 02:49:52;;;;;;;;;;;21.70;54.40;;;20.86;53.57;100325.31;12254615;19;19935;-85
2023/08/04 02:53:53;;;;;;;;;;;21.70;54.50;;;20.77;53.68;100311.22;12254645;19;20017;-85
2023/08/04 02:57:55;;;;;;;;;;;21.70;54.50;;;20.87;54.05;100326.97;12249102;19;19911;-85
2023/08/04 03:01:56;;;;;;;;;;;21.70;54.50;;;20.77;54.06;100308.56;12255744;19;19911;-85
2023/08/04 03:05:59;;;;;;;;;;;21.70;54.50;;;20.83;53.90;100323.00;12252490;19;19935;-85
2023/08/04 03:10:01;;;;;;;;;;;21.70;54.50;;;20.77;54.16;100322.66;12254057;19;20298;-85
2023/08/04 03:14:02;;;;;;;;;;;21.70;54.50;;;20.80;53.78;100310.06;12255625;19;19938;-85
2023/08/04 03:18:04;;;;;;;;;;;21.70;54.50;;;20.78;54.05;100318.16;12251592;19;20002;-85
2023/08/04 03:22:06;;;;;;;;;;;21.60;54.50;;;20.75;54.25;100314.00;12253581;19;19914;-85
2023/08/04 03:26:07;;;;;;;;;;;21.60;54.60;;;20.78;54.04;100320.81;12252420;19;19926;-85
2023/08/04 03:30:09;;;;;;;;;;;21.60;54.90;;;20.72;53.95;100327.59;12253853;19;19919;-85
2023/08/04 03:34:11;;;;;;;;;;;21.60;54.60;;;20.53;54.21;100325.19;12253953;19;20512;-85
2023/08/04 03:38:13;;;;;;;;;;;21.60;54.70;;;20.82;54.05;100369.94;12250275;19;20311;-85
2023/08/04 03:42:14;;;;;;;;;;;21.60;54.60;;;20.57;54.19;100323.06;12253832;19;19918;-85
2023/08/04 03:46:16;;;;;;;;;;;21.60;54.50;;;20.65;54.33;100329.22;12251975;19;19914;-85
2023/08/04 03:50:18;;;;;;;;;;;21.60;54.50;;;20.72;54.23;100348.84;12251449;19;19921;-85
2023/08/04 03:54:20;;;;;;;;;;;21.60;54.50;;;20.74;54.44;100365.44;12251004;19;19911;-85
2023/08/04 03:58:21;;;;;;;;;;;21.60;54.60;;;20.60;54.32;100336.81;12248682;19;19925;-84
2023/08/04 04:02:23;;;;;;;;;;;21.60;54.60;;;20.76;54.40;100376.69;12249108;19;19935;-85
2023/08/04 04:06:24;;;;;;;;;;;21.60;54.60;;;20.76;54.24;100389.16;12250066;19;19930;-85
2023/08/04 04:10:26;;;;;;;;;;;21.60;54.60;;;20.53;54.05;100357.00;12251981;19;19931;-85
2023/08/04 04:14:28;;;;;;;;;;;21.50;54.60;;;20.55;54.47;100368.34;12251627;19;19956;-85
2023/08/04 04:18:29;;;;;;;;;;;21.60;54.70;;;20.76;54.31;100397.09;12248803;19;20299;-85
2023/08/04 04:22:33;;;;;;;;;;;21.60;54.60;;;20.69;54.32;100388.97;12250352;19;19926;-85
2023/08/04 04:26:35;;;;;;;;;;;21.60;54.60;;;20.72;54.21;100409.88;12245480;19;19919;-85
2023/08/04 04:30:37;;;;;;;;;;;21.60;54.60;;;20.71;54.24;100410.00;12247824;19;19918;-85
2023/08/04 04:34:38;;;;;;;;;;;21.60;54.60;;;20.71;54.08;100417.97;12243001;19;20321;-85
2023/08/04 04:38:40;;;;;;;;;;;21.60;54.60;;;20.68;54.18;100432.38;12249377;19;19915;-85
2023/08/04 04:42:41;;;;;;;;;;;21.50;54.60;;;20.65;54.33;100435.38;12242755;19;20315;-85
2023/08/04 04:46:43;;;;;;;;;;;21.50;54.50;;;20.48;54.56;100407.88;12248614;19;19929;-85
2023/08/04 04:50:44;;;;;;;;;;;21.50;54.60;;;20.70;54.29;100440.22;12249981;19;19921;-85
2023/08/04 04:54:45;;;;;;;;;;;21.50;54.60;;;20.66;54.58;100434.41;12247480;19;20340;-86
2023/08/04 04:58:47;;;;;;;;;;;21.50;54.70;;;20.47;54.68;100416.84;12247046;19;19930;-85
2023/08/04 05:02:48;;;;;;;;;;;21.50;54.60;;;20.61;54.60;100444.66;12244061;19;19948;-85
2023/08/04 05:06:50;;;;;;;;;;;21.50;54.50;;;20.64;54.47;100457.59;12243398;19;19923;-85
2023/08/04 05:10:53;;;;;;;;;;;21.50;54.60;;;20.65;54.47;100469.84;12248878;19;19911;-85
2023/08/04 05:14:54;;;;;;;;;;;21.50;55.00;;;20.66;54.65;100479.50;12247300;19;20337;-86
2023/08/04 05:18:56;;;;;;;;;;;21.50;54.60;;;20.67;54.34;100472.38;12247805;19;19924;-86
2023/08/04 05:22:57;;;;;;;;;;;21.50;54.60;;;20.47;54.33;100440.72;12247259;19;19930;-85
2023/08/04 05:26:59;;;;;;;;;;;21.50;54.60;;;20.62;54.29;100464.03;12242199;19;20005;-86
2023/08/04 05:31:02;;;;;;;;;;;21.60;54.70;;;20.70;54.47;100482.66;12248306;19;19911;-86
2023/08/04 05:35:04;;;;;;;;;;;21.50;54.90;;;20.75;54.39;100493.66;12246260;19;19914;-86
2023/08/04 05:39:05;;;;;;;;;;;21.60;54.70;;;20.74;54.59;100495.47;12247324;19;19919;-87
2023/08/04 05:43:07;;;;;;;;;;;21.60;54.80;;;20.71;54.65;100490.47;12246244;19;20397;-86
2023/08/04 05:47:09;;;;;;;;;;;21.60;54.70;;;20.75;54.42;100505.09;12247301;19;19918;-85
2023/08/04 05:51:10;;;;;;;;;;;21.60;54.60;;;20.58;54.63;100479.44;12246164;19;19918;-85
2023/08/04 05:55:12;;;;;;;;;;;21.60;54.70;;;20.70;54.68;100495.94;12245810;19;19919;-85
2023/08/04 05:59:14;;;;;;;;;;;21.70;54.80;;;20.69;54.58;100500.41;12248422;19;19910;-87
2023/08/04 06:03:16;;;;;;;;;;;21.70;54.80;;;20.84;54.77;100521.88;12245935;19;19915;-84
2023/08/04 06:07:17;;;;;;;;;;;21.70;54.70;;;20.77;54.75;100516.38;12245020;19;19918;-85
2023/08/04 06:11:21;;;;;;;;;;;21.70;54.60;;;20.88;54.85;100530.41;12244349;19;19919;-85
2023/08/04 06:15:22;;;;;;;;;;;21.70;54.80;;;20.74;54.66;100519.34;12244431;19;20287;-86
2023/08/04 06:19:24;;;;;;;;;;;21.70;54.60;;;20.91;54.86;100546.00;12249462;19;19906;-86
2023/08/04 06:23:25;;;;;;;;;;;21.80;54.60;;;20.81;55.02;100529.34;12259664;19;19921;-85
2023/08/04 06:27:27;;;;;;;;;;;21.80;54.70;;;20.99;54.49;100562.00;12254452;19;19922;-85
2023/08/04 06:31:29;;;;;;;;;;;21.80;54.60;;;20.99;54.96;100562.00;12255607;19;19944;-85
2023/08/04 06:35:30;;;;;;;;;;;21.90;54.60;;;20.89;54.78;100555.94;12255973;19;19983;-85
2023/08/04 06:39:32;;;;;;;;;;;21.90;54.60;;;21.01;54.85;100581.25;12258721;19;19919;-86
2023/08/04 06:43:34;;;;;;;;;;;21.90;54.60;;;21.07;54.84;100577.13;12259601;19;19927;-87
2023/08/04 06:47:36;;;;;;;;;;;22.00;54.70;;;21.03;54.57;100555.34;12249998;19;19923;-87
2023/08/04 06:51:37;;;;;;;;;;;22.10;54.70;;;21.13;54.93;100566.72;12255635;19;19922;-86
2023/08/04 06:55:39;;;;;;;;;;;22.10;54.70;;;21.30;54.73;100582.72;12251828;19;19951;-87
2023/08/04 06:59:41;;;;;;;;;;;22.20;54.60;;;21.33;54.69;100582.41;12257278;19;19999;-88
2023/08/04 07:03:45;;;;;;;;;;;22.20;54.60;;;21.34;54.84;100587.59;12254196;19;20263;-87
2023/08/04 07:07:48;;;;;;;;;;;22.30;54.50;;;21.31;54.90;100579.09;12252461;19;20269;-87
2023/08/04 07:11:49;;;;;;;;;;;22.30;54.50;;;21.42;54.78;100597.44;12253175;19;19915;-87
2023/08/04 07:15:55;;;;;;;;;;;22.40;54.60;;;21.44;54.56;100606.06;12252078;19;19915;-87
2023/08/04 07:19:57;;;;;;;;;;;22.40;54.50;;;21.51;54.90;100609.78;12253135;19;19926;-87
2023/08/04 07:23:58;;;;;;;;;;;22.50;54.40;;;21.33;55.18;100590.38;12251431;19;20326;-87
2023/08/04 07:28:00;;;;;;;;;;;22.50;54.50;;;21.54;55.14;100612.13;12249728;19;19934;-87
2023/08/04 07:32:02;;;;;;;;;;;22.50;54.30;;;21.64;54.97;100627.94;12249756;19;19915;-88
2023/08/04 07:36:04;;;;;;;;;;;22.60;54.40;;;21.74;54.92;100635.78;12247087;19;19919;-88
2023/08/04 07:40:06;;;;;;;;;;;22.70;54.40;;;21.61;55.07;100610.50;12244620;19;19928;-88
2023/08/04 07:44:08;;;;;;;;;;;22.70;54.30;;;21.90;54.78;100650.97;12243467;19;19919;-87
2023/08/04 07:48:09;;;;;;;;;;;22.80;54.30;;;21.69;54.71;100611.53;12242585;19;19911;-89
2023/08/04 07:52:11;;;;;;;;;;;22.80;54.30;;;21.97;54.92;100644.84;12244187;19;20547;-87
2023/08/04 07:56:13;;;;;;;;;;;23.00;54.40;;;22.05;55.27;100646.72;12241316;19;19918;-87
2023/08/04 08:00:14;;;;;;;;;;;23.00;54.30;;;22.28;54.94;100655.81;12241886;19;19932;-87
2023/08/04 08:04:16;;;;;;;;;;;23.20;54.40;;;22.28;55.19;100649.66;12244724;19;19925;-88
2023/08/04 08:08:18;;;;;;;;;;;23.30;53.90;;;22.40;55.14;100671.44;12240289;19;19930;-88
2023/08/04 08:12:19;;;;;;;;;;;23.40;53.80;;;22.28;54.83;100658.47;12246825;19;19919;-87
2023/08/04 08:16:21;;;;;;;;;;;23.40;53.70;;;22.37;54.88;100677.09;12247702;19;19986;-87
2023/08/04 08:20:22;;;;;;;;;;;23.40;53.50;;;22.35;55.10;100663.94;12245555;19;19923;-87
2023/08/04 08:24:24;;;;;;;;;;;23.40;53.80;;;22.41;55.03;100670.44;12242211;19;19919;-87
2023/08/04 08:28:25;;;;;;;;;;;23.40;53.30;;;22.45;55.07;100675.28;12234433;19;19922;-87
2023/08/04 08:32:27;;;;;;;;;;;23.40;53.60;;;22.58;55.10;100685.47;12239158;19;19982;-87
2023/08/04 08:36:29;;;;;;;;;;;23.50;53.70;;;22.59;55.01;100681.78;12240315;19;19936;-87
2023/08/04 08:40:30;;;;;;;;;;;23.50;53.50;;;22.65;55.03;100670.47;12239495;19;19940;-86
2023/08/04 08:44:35;;;;;;;;;;;23.70;53.70;;;22.82;54.93;100697.13;12234323;19;20232;-87
2023/08/04 08:48:38;;;;;;;;;;;23.80;53.70;;;22.89;54.68;100685.66;12238840;19;19923;-86
2023/08/04 08:52:41;;;;;;;;;;;23.90;53.90;;;23.12;54.80;100703.69;12238236;19;19927;-87
2023/08/04 08:56:42;;;;;;;;;;;24.10;53.90;;;23.27;54.95;100712.63;12236445;19;19986;-87
2023/08/04 09:00:43;;;;;;;;;;;24.20;53.70;;;23.21;54.93;100678.69;12238189;19;19922;-87
2023/08/04 09:04:45;;;;;;;;;;;24.40;53.50;;;23.59;54.90;100713.59;12236484;19;19919;-86
2023/08/04 09:08:47;;;;;;;;;;;24.60;53.60;;;23.68;54.79;100717.06;12238655;19;19923;-87
2023/08/04 09:12:54;;;;;;;;;;;24.70;53.30;;;23.72;55.03;100711.28;12237634;19;19915;-88
2023/08/04 09:16:55;;;;;;;;;;;24.80;53.20;;;23.85;54.79;100724.06;12235910;19;19934;-86
2023/08/04 09:21:15;;;;;;;;;;;24.90;52.80;;;23.99;54.76;100722.53;12239412;19;19943;-86
2023/08/04 09:25:17;;;;;;;;;;;25.00;53.10;;;23.99;54.83;100703.84;12236773;19;19950;-86
2023/08/04 09:29:19;;;;;;;;;;;25.10;53.00;;;24.24;54.96;100737.41;12238753;19;19915;-87
2023/08/04 09:33:24;;;;;;;;;;;25.30;52.70;;;24.30;54.63;100727.88;12234777;19;19931;-86
2023/08/04 09:37:25;;;;;;;;;;;25.40;52.80;;;24.42;54.80;100731.00;12228922;19;19935;-87
2023/08/04 09:41:27;;;;;;;;;;;25.50;52.40;;;24.28;54.60;100689.88;12238610;19;19919;-86
2023/08/04 09:45:32;;;;;;;;;;;25.60;52.80;;;24.60;54.72;100736.94;12231080;19;19987;-86
2023/08/04 09:49:35;;;;;;;;;;;25.70;52.50;;;24.76;54.65;100730.66;12230894;19;19923;-86
2023/08/04 09:53:46;;;;;;;;;;;25.80;52.80;;;24.85;54.19;100734.13;12238914;19;19930;-86
2023/08/04 09:57:48;;;;;;;;;;;25.90;52.40;;;24.88;54.59;100731.91;12242185;19;19926;-86
2023/08/04 10:01:50;;;;;;;;;;;25.90;52.60;;;24.99;54.17;100728.00;12246826;19;19932;-87
2023/08/04 10:05:52;;;;;;;;;;;26.10;52.70;;;25.04;54.56;100722.94;12244503;19;19930;-87
2023/08/04 10:09:54;;;;;;;;;;;26.10;52.70;;;25.15;54.44;100717.19;12244344;19;19925;-87
2023/08/04 10:13:56;;;;;;;;;;;26.30;51.50;;;25.26;53.90;100731.97;12254488;19;19914;-87
2023/08/04 10:17:58;;;;;;;;;;;26.30;52.00;;;25.32;53.96;100730.41;12249125;19;19918;-87
2023/08/04 10:22:08;;;;;;;;;;;26.40;52.10;;;25.20;54.16;100718.50;12256959;19;19930;-87
2023/08/04 10:26:12;;;;;;;;;;;26.40;51.80;;;25.27;53.80;100716.75;12250505;19;19919;-87
2023/08/04 10:30:14;;;;;;;;;;;26.40;51.90;;;25.25;53.77;100722.31;12249699;19;19935;-86
2023/08/04 10:34:23;;;;;;;;;;;26.40;52.10;;;25.33;53.68;100751.63;12252272;19;19970;-86
2023/08/04 10:38:24;;;;;;;;;;;26.40;51.70;;;25.25;53.65;100748.19;12244156;19;19926;-87
2023/08/04 10:42:28;;;;;;;;;;;26.30;51.60;;;25.23;53.84;100759.06;12249666;19;19918;-86
2023/08/04 10:46:32;;;;;;;;;;;26.30;51.60;;;25.06;53.41;100710.25;12253088;19;19910;-86
2023/08/04 10:50:33;;;;;;;;;;;26.20;51.70;;;25.12;53.96;100714.84;12252365;19;19933;-87
2023/08/04 10:54:35;;;;;;;;;;;26.20;51.70;;;25.29;53.75;100730.78;12250138;19;19929;-85
2023/08/04 10:58:38;;;;;;;;;;;26.30;52.00;;;25.34;53.75;100712.34;12250718;19;19918;-86
2023/08/04 11:02:39;;;;;;;;;;;26.50;51.60;;;25.49;53.66;100723.91;12253988;19;19974;-86
2023/08/04 11:06:41;;;;;;;;;;;26.50;51.90;;;25.49;53.24;100725.75;12248699;19;19925;-86
2023/08/04 11:10:49;;;;;;;;;;;26.60;51.90;;;25.41;53.51;100713.31;12255864;19;19923;-86
2023/08/04 11:14:53;;;;;;;;;;;26.60;51.50;;;25.52;53.49;100728.03;12252705;19;19926;-86
2023/08/04 11:18:55;;;;;;;;;;;26.60;50.80;;;25.53;52.91;100737.75;12252981;19;19983;-86
2023/08/04 11:22:56;;;;;;;;;;;26.50;51.40;;;25.28;52.91;100702.41;12253804;19;20128;-85
2023/08/04 11:26:58;;;;;;;;;;;26.50;51.50;;;25.51;52.83;100735.25;12251670;19;20341;-86
2023/08/04 11:31:04;;;;;;;;;;;26.50;51.10;;;25.46;53.32;100736.81;12253912;19;19975;-86
2023/08/04 11:35:06;;;;;;;;;;;26.50;50.90;;;25.61;53.16;100751.88;12253077;19;19979;-86
2023/08/04 11:39:08;;;;;;;;;;;26.50;51.20;;;25.54;52.74;100742.91;12253550;19;19915;-85
2023/08/04 11:43:09;;;;;;;;;;;26.50;50.00;;;25.64;52.82;100748.00;12253924;19;19918;-86
2023/08/04 11:47:13;;;;;;;;;;;26.60;50.50;;;25.69;52.92;100752.81;12249679;19;19923;-86
2023/08/04 11:51:15;;;;;;;;;;;26.60;50.40;;;25.79;52.99;100764.06;12247015;19;20301;-86
2023/08/04 11:55:17;;;;;;;;;;;26.70;50.40;;;25.92;52.86;100761.59;12240520;19;20142;-86
2023/08/04 11:59:18;;;;;;;;;;;26.80;48.80;;;26.05;52.49;100769.81;12247488;19;19922;-84
2023/08/04 12:03:19;;;;;;;;;;;27.00;50.00;;;26.03;52.51;100777.22;12251146;19;19918;-87
2023/08/04 12:07:27;;;;;;;;;;;27.00;50.40;;;25.95;52.67;100771.09;12246855;19;19943;-87
2023/08/04 12:11:28;;;;;;;;;;;27.00;50.40;;;25.95;52.60;100790.69;12249536;19;19960;-86
2023/08/04 12:15:30;;;;;;;;;;;27.00;50.30;;;25.86;52.48;100782.91;12248311;19;19930;-86
2023/08/04 12:19:32;;;;;;;;;;;26.90;50.10;;;25.89;52.07;100798.59;12246271;19;19930;-87
2023/08/04 12:23:33;;;;;;;;;;;26.90;50.40;;;25.77;52.09;100787.50;12249499;19;19919;-85
2023/08/04 12:27:35;;;;;;;;;;;26.80;50.40;;;25.57;52.33;100763.94;12245114;19;19923;-86
2023/08/04 12:31:38;;;;;;;;;;;26.70;50.40;;;25.70;52.12;100792.72;12248087;19;19907;-86
2023/08/04 12:35:39;;;;;;;;;;;26.70;50.50;;;25.56;52.08;100775.66;12246919;19;19932;-85
2023/08/04 12:39:44;;;;;;;;;;;26.60;50.70;;;25.65;52.33;100788.94;12246539;19;19941;-87
2023/08/04 12:43:46;;;;;;;;;;;26.50;50.70;;;25.59;51.78;100785.97;12246130;19;19914;-86
2023/08/04 12:47:47;;;;;;;;;;;26.50;50.80;;;25.64;52.12;100806.84;12245137;19;19910;-86
2023/08/04 12:51:49;;;;;;;;;;;26.50;50.90;;;25.66;52.17;100795.97;12246447;19;19919;-85
2023/08/04 12:55:50;;;;;;;;;;;26.50;50.70;;;25.73;52.07;100807.59;12245714;19;20314;-87
2023/08/04 12:59:51;;;;;;;;;;;26.60;50.90;;;25.87;52.02;100835.41;12246471;19;19919;-86
2023/08/04 13:03:53;;;;;;;;;;;26.70;48.30;;;25.95;51.98;100844.22;12245264;19;19919;-85
2023/08/04 13:07:56;;;;;;;;;;;26.80;49.60;;;26.05;52.20;100841.25;12244868;19;19930;-86
2023/08/04 13:11:58;;;;;;;;;;;26.90;50.50;;;26.04;51.85;100819.00;12246422;19;19914;-85
2023/08/04 13:16:00;;;;;;;;;;;26.90;49.30;;;26.03;51.85;100795.94;12246317;19;19918;-85
2023/08/04 13:20:01;;;;;;;;;;;27.00;49.70;;;26.22;51.84;100817.78;12248462;19;19918;-85
2023/08/04 13:24:03;;;;;;;;;;;27.10;50.00;;;26.35;51.51;100825.19;12244598;19;19930;-86
2023/08/04 13:28:05;;;;;;;;;;;27.20;50.10;;;26.44;51.61;100841.00;12241075;19;19915;-85
2023/08/04 13:32:06;;;;;;;;;;;27.30;50.20;;;26.48;51.65;100842.25;12246494;19;20389;-84
2023/08/04 13:36:08;;;;;;;;;;;27.30;49.90;;;26.43;51.65;100831.28;12242700;19;19935;-85
2023/08/04 13:40:10;;;;;;;;;;;27.40;49.90;;;26.44;51.60;100822.22;12243872;19;19947;-85
2023/08/04 13:44:11;;;;;;;;;;;27.40;50.10;;;26.45;51.32;100818.53;12245021;19;19931;-85
2023/08/04 13:48:13;;;;;;;;;;;27.40;50.00;;;26.57;51.49;100821.63;12241088;19;20544;-85
2023/08/04 13:52:15;;;;;;;;;;;27.40;50.20;;;26.56;51.43;100798.50;12245002;19;19967;-85
2023/08/04 13:56:16;;;;;;;;;;;27.50;50.10;;;26.66;51.14;100800.91;12244223;19;19922;-85
2023/08/04 14:00:18;;;;;;;;;;;27.60;48.20;;;26.69;51.62;100814.75;12244647;19;19949;-85
2023/08/04 14:04:20;;;;;;;;;;;27.60;49.70;;;26.77;51.24;100821.00;12245397;19;19931;-85
2023/08/04 14:08:21;;;;;;;;;;;27.70;50.00;;;26.77;51.55;100816.47;12242302;19;19923;-85
2023/08/04 14:12:24;;;;;;;;;;;27.70;49.20;;;26.74;51.20;100792.75;12242954;19;19918;-85
2023/08/04 14:16:25;;;;;;;;;;;27.80;48.60;;;26.92;51.52;100803.03;12239990;19;19915;-86
2023/08/04 14:20:27;;;;;;;;;;;27.80;49.60;;;26.94;51.03;100811.72;12241523;19;20392;-86
2023/08/04 14:24:28;;;;;;;;;;;27.90;48.60;;;26.97;51.06;100831.94;12242274;19;19923;-86
2023/08/04 14:28:29;;;;;;;;;;;27.90;48.00;;;26.97;50.86;100831.94;12237316;19;19923;-86
2023/08/04 14:32:31;;;;;;;;;;;27.90;48.60;;;26.97;50.85;100845.34;12242025;19;20029;-86
2023/08/04 14:36:32;;;;;;;;;;;27.90;48.60;;;26.99;50.85;100859.41;12240196;19;19907;-86
2023/08/04 14:40:33;;;;;;;;;;;27.90;48.90;;;27.01;50.83;100854.69;12247150;19;19915;-86
2023/08/04 14:44:36;;;;;;;;;;;27.90;49.20;;;26.86;50.65;100827.91;12255552;19;19938;-85
2023/08/04 14:48:38;;;;;;;;;;;27.90;49.20;;;26.98;50.64;100853.22;12254249;19;19946;-85
2023/08/04 14:52:39;;;;;;;;;;;27.90;49.30;;;27.08;50.48;100868.97;12254568;19;20000;-85
2023/08/04 14:56:41;;;;;;;;;;;27.90;49.40;;;27.08;50.30;100863.63;12250112;19;20265;-85
2023/08/04 15:00:42;;;;;;;;;;;27.90;49.50;;;27.08;50.57;100859.06;12254415;19;20258;-85
2023/08/04 15:04:43;;;;;;;;;;;27.90;49.60;;;27.10;50.53;100851.69;12256246;19;20002;-85
2023/08/04 15:08:46;;;;;;;;;;;28.00;49.30;;;27.06;50.69;100838.88;12251545;19;19923;-86
2023/08/04 15:12:48;;;;;;;;;;;28.00;49.40;;;27.17;50.26;100850.94;12248546;19;19926;-85
2023/08/04 15:16:50;;;;;;;;;;;28.00;47.90;;;26.98;50.45;100806.78;12247857;19;20440;-85
2023/08/04 15:20:51;;;;;;;;;;;28.00;48.30;;;27.01;50.16;100815.31;12247260;19;19915;-85
2023/08/04 15:24:53;;;;;;;;;;;28.00;48.90;;;27.18;49.97;100834.66;12251953;19;19907;-85
2023/08/04 15:28:54;;;;;;;;;;;28.00;48.90;;;27.18;50.18;100817.75;12250624;19;19914;-84
2023/08/04 15:32:56;;;;;;;;;;;28.00;49.00;;;27.22;50.25;100830.59;12244348;19;19926;-85
2023/08/04 15:36:57;;;;;;;;;;;28.00;48.90;;;27.24;50.10;100836.59;12244996;19;19918;-84
2023/08/04 15:41:04;;;;;;;;;;;28.00;49.00;;;27.21;50.24;100828.94;12249733;19;19947;-85
2023/08/04 15:45:06;;;;;;;;;;;28.10;48.70;;;27.19;50.10;100820.22;12246485;19;19933;-85
2023/08/04 15:49:07;;;;;;;;;;;28.10;48.40;;;27.19;49.97;100820.22;12249434;19;19937;-84
2023/08/04 15:53:09;;;;;;;;;;;28.00;47.40;;;27.15;49.99;100832.34;12247326;19;19990;-85
2023/08/04 15:57:10;;;;;;;;;;;28.10;48.10;;;27.05;50.12;100821.09;12246207;19;20259;-85
2023/08/04 16:01:12;;;;;;;;;;;28.00;48.50;;;27.26;49.57;100857.84;12243233;19;20107;-85
2023/08/04 16:05:13;;;;;;;;;;;28.00;48.30;;;27.18;49.87;100837.34;12244323;19;19947;-85
2023/08/04 16:09:14;;;;;;;;;;;28.00;48.10;;;27.24;49.61;100850.00;12245017;19;19919;-85
2023/08/04 16:13:16;;;;;;;;;;;28.00;48.20;;;27.27;49.39;100849.59;12238682;19;19942;-84
2023/08/04 16:17:18;;;;;;;;;;;28.00;48.00;;;27.27;49.46;100844.25;12239566;19;19933;-84
2023/08/04 16:21:19;;;;;;;;;;;28.00;48.10;;;27.26;49.58;100841.78;12244767;19;19926;-84
2023/08/04 16:25:21;;;;;;;;;;;28.00;48.40;;;27.18;49.34;100823.13;12244825;19;19926;-84
2023/08/04 16:29:22;;;;;;;;;;;28.00;47.80;;;27.18;49.30;100825.81;12238576;19;19922;-85
2023/08/04 16:33:24;;;;;;;;;;;28.00;47.90;;;27.08;49.28;100818.03;12248162;19;20072;-84
2023/08/04 16:37:26;;;;;;;;;;;27.90;46.60;;;27.06;49.32;100828.13;12244810;19;20015;-85
2023/08/04 16:41:30;;;;;;;;;;;27.90;46.10;;;26.83;49.18;100799.63;12244759;19;19927;-85
2023/08/04 16:45:32;;;;;;;;;;;27.90;47.70;;;26.99;49.23;100825.38;12237135;19;19926;-84
2023/08/04 16:49:34;;;;;;;;;;;27.80;45.90;;;27.02;49.03;100841.06;12239657;19;19925;-85
2023/08/04 16:53:35;;;;;;;;;;;27.80;47.50;;;26.99;48.88;100841.47;12246795;19;20268;-85
2023/08/04 16:57:38;;;;;;;;;;;27.80;47.70;;;26.92;48.73;100837.88;12243576;19;19923;-84
2023/08/04 17:01:40;;;;;;;;;;;27.70;47.40;;;26.93;48.67;100840.38;12239466;19;19950;-85
2023/08/04 17:05:41;;;;;;;;;;;27.70;47.50;;;26.90;48.54;100840.75;12236773;19;19929;-85
2023/08/04 17:09:42;;;;;;;;;;;27.70;47.50;;;26.79;48.51;100825.16;12239280;19;19930;-85
2023/08/04 17:13:44;;;;;;;;;;;27.60;47.20;;;26.79;48.46;100833.22;12241925;19;19926;-85
2023/08/04 17:17:45;;;;;;;;;;;27.50;47.50;;;26.79;48.77;100840.38;12240187;19;19918;-85
2023/08/04 17:21:46;;;;;;;;;;;27.50;47.70;;;26.77;48.71;100837.09;12242180;19;19926;-85
2023/08/04 17:25:48;;;;;;;;;;;27.40;47.60;;;26.74;48.71;100830.25;12241307;19;20591;-84
2023/08/04 17:29:49;;;;;;;;;;;27.50;47.70;;;26.55;48.54;100806.75;12239094;19;19978;-85
2023/08/04 17:33:51;;;;;;;;;;;27.30;47.60;;;26.61;48.48;100841.63;12242936;19;19918;-83
2023/08/04 17:37:52;;;;;;;;;;;27.40;47.70;;;26.62;48.82;100837.09;12236826;19;19930;-88
2023/08/04 17:41:53;;;;;;;;;;;27.30;47.50;;;26.51;48.45;100825.03;12242238;19;19923;-87
2023/08/04 17:45:55;;;;;;;;;;;27.30;47.60;;;26.49;48.59;100841.25;12266966;19;19911;-85
2023/08/04 17:49:57;;;;;;;;;;;27.20;47.50;;;26.49;48.51;100856.47;12242052;19;19933;-84
2023/08/04 17:53:59;;;;;;;;;;;27.20;47.60;;;26.44;48.35;100851.69;12243816;19;19919;-85
2023/08/04 17:58:00;;;;;;;;;;;27.20;47.70;;;26.39;48.41;100851.41;12238533;19;19974;-85
2023/08/04 18:02:02;;;;;;;;;;;27.10;47.60;;;26.21;48.44;100826.84;12237782;19;19935;-85
2023/08/04 18:06:05;;;;;;;;;;;27.10;47.60;;;26.35;48.51;100842.06;12240094;19;19915;-85
2023/08/04 18:10:07;;;;;;;;;;;27.10;47.70;;;26.20;48.04;100830.56;12238976;19;19914;-85